Nocatee, Florida
Current Conditions -  °F | °C
As of 1:25 AM on Friday 19 Dec 2014 (Local Time) from KPGD Reporting Station
Haze Haze  
Wind Chill: 47°   Ceiling: Unl
Heat Index: 49°   Visibility: 3mi
Dew Point: 48°   Wind: 5mph
Humidity: 97%   Direction: 20°NNE
Pressure: 30.14"   Gusts: NA
Location:  27.16°N, 81.88°W
Report Text: KPGD 190625Z AUTO 02004KT 3SM BR CLR 09/09 A3014 RMK AO2 T00940089
Loading
Personal Weather Stations






























Interactive Weather Map New forecast layout! Learn more

10-Day Weather Forecast

Advertisements
Track Severe Weather on mobile